createdAt,value
2023-04-03T00:01:41.598Z,20.98
2023-04-03T00:04:10.562Z,20.97
2023-04-03T00:06:39.741Z,20.93
2023-04-03T00:09:10.490Z,20.92
2023-04-03T00:11:39.583Z,20.89
2023-04-03T00:14:08.552Z,20.87
2023-04-03T00:16:37.568Z,20.86
2023-04-03T00:19:07.282Z,20.81
2023-04-03T00:21:36.405Z,20.78
2023-04-03T00:24:05.325Z,20.86
2023-04-03T00:26:34.389Z,20.77
2023-04-03T00:29:03.302Z,20.77
2023-04-03T00:31:32.496Z,20.88
2023-04-03T00:34:01.399Z,20.89
2023-04-03T00:36:30.540Z,20.97
2023-04-03T00:38:59.444Z,20.94
2023-04-03T00:41:28.390Z,21.00
2023-04-03T00:43:57.228Z,20.97
2023-04-03T00:46:26.214Z,20.97
2023-04-03T00:48:55.494Z,21.02
2023-04-03T00:51:29.012Z,20.91
2023-04-03T00:54:06.841Z,20.88
2023-04-03T00:56:38.351Z,20.75
2023-04-03T00:59:16.330Z,21.07
2023-04-03T01:01:45.924Z,20.92
2023-04-03T01:04:32.776Z,21.14
2023-04-03T01:07:12.001Z,21.04
2023-04-03T01:09:42.182Z,20.90
2023-04-03T01:12:26.438Z,20.93
2023-04-03T01:14:58.426Z,20.83
2023-04-03T01:17:38.794Z,20.88
2023-04-03T01:20:37.858Z,20.81
2023-04-03T01:23:12.820Z,20.71
2023-04-03T01:25:42.067Z,20.92
2023-04-03T01:28:15.162Z,20.63
2023-04-03T01:30:53.380Z,20.81
2023-04-03T01:33:22.608Z,20.78
2023-04-03T01:35:51.918Z,20.87
2023-04-03T01:38:21.167Z,20.74
2023-04-03T01:40:50.100Z,20.75
2023-04-03T01:43:19.787Z,20.97
2023-04-03T01:45:48.864Z,20.93
2023-04-03T01:48:19.270Z,21.13
2023-04-03T01:50:48.453Z,21.04
2023-04-03T01:53:17.340Z,20.97
2023-04-03T01:55:46.681Z,20.98
2023-04-03T01:58:15.458Z,21.02
2023-04-03T02:00:44.550Z,21.16
2023-04-03T02:03:13.657Z,21.19
2023-04-03T02:05:42.778Z,21.08
2023-04-03T02:08:12.597Z,21.33
2023-04-03T02:10:42.212Z,21.15
2023-04-03T02:13:10.947Z,21.33
2023-04-03T02:15:43.332Z,21.52
2023-04-03T02:18:12.085Z,21.50
2023-04-03T02:20:41.026Z,21.35
2023-04-03T02:23:10.003Z,21.32
2023-04-03T02:25:39.233Z,21.49
2023-04-03T02:28:08.771Z,21.62
2023-04-03T02:30:37.891Z,21.60
2023-04-03T02:33:07.154Z,21.53
2023-04-03T02:35:36.003Z,21.50
2023-04-03T02:38:05.226Z,21.62
2023-04-03T02:40:34.121Z,21.73
2023-04-03T02:43:03.187Z,21.78
2023-04-03T02:45:33.992Z,21.77
2023-04-03T02:48:03.180Z,21.91
2023-04-03T02:50:31.986Z,21.78
2023-04-03T02:53:01.004Z,21.88
2023-04-03T02:55:29.846Z,22.02
2023-04-03T02:57:58.955Z,22.05
2023-04-03T03:00:28.015Z,21.93
2023-04-03T03:02:57.137Z,22.03
2023-04-03T03:05:26.611Z,22.06
2023-04-03T03:07:56.544Z,22.14
2023-04-03T03:10:25.977Z,22.11
2023-04-03T03:12:55.064Z,22.18
2023-04-03T03:15:23.884Z,22.20
2023-04-03T03:17:52.897Z,22.23
2023-04-03T03:20:22.848Z,22.17
2023-04-03T03:22:52.411Z,22.22
2023-04-03T03:25:21.271Z,22.24
2023-04-03T03:27:50.265Z,22.20
2023-04-03T03:30:19.240Z,22.03
2023-04-03T03:32:48.670Z,22.05
2023-04-03T03:35:17.488Z,22.17
2023-04-03T03:37:46.631Z,22.19
2023-04-03T03:40:16.428Z,22.17
2023-04-03T03:42:47.355Z,22.13
2023-04-03T03:45:16.466Z,22.19
2023-04-03T03:47:45.926Z,22.16
2023-04-03T03:50:15.183Z,22.19
2023-04-03T03:52:44.369Z,22.20
2023-04-03T03:55:14.261Z,22.22
2023-04-03T03:57:43.514Z,22.26
2023-04-03T04:00:13.428Z,22.34
2023-04-03T04:02:50.845Z,22.37
2023-04-03T04:05:22.434Z,22.42
2023-04-03T04:07:51.514Z,22.47
2023-04-03T04:10:20.561Z,22.41
2023-04-03T04:12:51.048Z,22.39
2023-04-03T04:15:23.707Z,22.44
2023-04-03T04:17:53.322Z,22.49
2023-04-03T04:20:22.932Z,22.49
2023-04-03T04:22:51.864Z,22.48
2023-04-03T04:25:22.144Z,22.39
2023-04-03T04:27:51.596Z,22.45
2023-04-03T04:30:20.818Z,22.52
2023-04-03T04:32:51.765Z,22.62
2023-04-03T04:35:20.867Z,22.51
2023-04-03T04:37:52.659Z,22.66
2023-04-03T04:40:22.902Z,22.83
2023-04-03T04:42:52.325Z,22.83
2023-04-03T04:45:21.476Z,22.77
2023-04-03T04:47:51.827Z,22.86
2023-04-03T04:50:21.672Z,22.77
2023-04-03T04:52:50.911Z,23.03
2023-04-03T04:55:20.062Z,22.99
2023-04-03T04:57:48.928Z,22.93
2023-04-03T05:00:19.416Z,23.28
2023-04-03T05:02:49.219Z,23.24
2023-04-03T05:05:20.311Z,22.99
2023-04-03T05:07:49.564Z,23.18
2023-04-03T05:10:19.139Z,23.22
2023-04-03T05:12:48.921Z,23.22
2023-04-03T05:15:18.181Z,23.15
2023-04-03T05:17:48.065Z,23.33
2023-04-03T05:20:17.907Z,23.42
2023-04-03T05:22:48.632Z,23.46
2023-04-03T05:25:18.387Z,23.47
2023-04-03T05:27:47.328Z,23.41
2023-04-03T05:30:16.774Z,23.59
2023-04-03T05:32:47.423Z,23.86
2023-04-03T05:35:24.549Z,23.92
2023-04-03T05:37:58.319Z,23.90
2023-04-03T05:40:28.281Z,23.89
2023-04-03T05:46:59.471Z,24.16
2023-04-03T05:49:29.980Z,24.27
2023-04-03T05:52:00.014Z,24.25
2023-04-03T05:54:33.591Z,24.26
2023-04-03T05:57:10.966Z,24.32
2023-04-03T05:59:41.176Z,24.49
2023-04-03T06:02:14.149Z,24.46
2023-04-03T06:04:44.586Z,24.49
2023-04-03T06:07:23.542Z,24.42
2023-04-03T06:09:54.151Z,24.56
2023-04-03T06:12:24.581Z,24.70
2023-04-03T06:14:54.811Z,24.52
2023-04-03T06:17:25.117Z,24.54
2023-04-03T06:19:56.277Z,24.50
2023-04-03T06:23:21.190Z,24.74
2023-04-03T06:25:50.376Z,24.78
2023-04-03T06:32:59.235Z,25.07
2023-04-03T06:35:30.814Z,25.03
2023-04-03T06:38:00.969Z,25.12
2023-04-03T06:40:30.673Z,25.13
2023-04-03T06:43:00.781Z,25.07
2023-04-03T06:45:30.785Z,25.15
2023-04-03T06:48:00.632Z,25.18
2023-04-03T06:50:40.132Z,25.56
2023-04-03T06:53:40.692Z,25.56
2023-04-03T06:56:13.626Z,25.71
2023-04-03T06:58:44.165Z,25.26
2023-04-03T07:01:16.493Z,25.34
2023-04-03T07:23:23.275Z,25.34
2023-04-03T07:25:54.611Z,25.14
2023-04-03T07:28:29.255Z,24.98
2023-04-03T07:32:06.501Z,25.19
2023-04-03T07:34:36.076Z,24.89
2023-04-03T07:37:05.257Z,25.01
2023-04-03T07:39:34.950Z,24.95
2023-04-03T07:42:04.389Z,24.89
2023-04-03T07:44:34.380Z,24.97
2023-04-03T07:47:03.456Z,24.88
2023-04-03T07:49:34.969Z,24.93
2023-04-03T07:52:04.440Z,24.94
2023-04-03T07:54:33.430Z,24.90
2023-04-03T07:57:03.472Z,24.98
2023-04-03T07:59:32.740Z,24.91
2023-04-03T08:02:17.746Z,24.85
2023-04-03T08:04:48.624Z,24.91
2023-04-03T08:07:17.708Z,24.93
2023-04-03T08:09:47.002Z,24.93
2023-04-03T08:12:16.759Z,24.90
2023-04-03T08:14:46.081Z,24.89
2023-04-03T08:17:14.996Z,24.85
2023-04-03T08:19:44.210Z,24.99
2023-04-03T08:22:13.122Z,25.01
2023-04-03T08:24:52.527Z,25.02
2023-04-03T08:27:29.955Z,25.11
2023-04-03T08:29:59.219Z,25.03
2023-04-03T08:32:29.082Z,25.13
2023-04-03T08:34:58.622Z,25.25
2023-04-03T08:37:27.397Z,25.27
2023-04-03T08:39:56.921Z,25.08
2023-04-03T08:42:41.737Z,25.16
2023-04-03T08:45:23.905Z,24.76
2023-04-03T08:48:03.854Z,24.95
2023-04-03T08:50:40.136Z,25.11
2023-04-03T08:53:17.667Z,25.13
2023-04-03T08:55:52.786Z,25.18
2023-04-03T08:58:25.978Z,25.27
2023-04-03T09:01:00.621Z,25.17
2023-04-03T09:03:33.439Z,25.18
2023-04-03T09:06:26.299Z,25.19
2023-04-03T09:08:55.231Z,24.91
2023-04-03T09:11:47.306Z,25.13
2023-04-03T09:14:31.684Z,25.24
2023-04-03T09:17:05.188Z,25.29
2023-04-03T09:19:34.769Z,25.49
2023-04-03T09:22:26.349Z,25.55
2023-04-03T09:25:04.079Z,25.60
2023-04-03T09:27:33.279Z,25.49
2023-04-03T09:30:02.208Z,25.53
2023-04-03T09:32:34.476Z,25.43
2023-04-03T09:35:20.569Z,25.29
2023-04-03T09:37:58.764Z,25.32
2023-04-03T09:40:27.843Z,25.28
2023-04-03T09:43:03.779Z,25.58
2023-04-03T09:45:35.705Z,25.78
2023-04-03T09:48:18.087Z,25.69
2023-04-03T09:50:53.168Z,25.54
2023-04-03T09:53:38.009Z,25.68
2023-04-03T09:56:22.587Z,25.95
2023-04-03T09:59:09.441Z,26.11
2023-04-03T10:01:41.883Z,25.93
2023-04-03T10:04:20.111Z,25.93
2023-04-03T10:06:52.592Z,25.85
2023-04-03T10:09:30.143Z,25.89
2023-04-03T10:12:09.100Z,25.99
2023-04-03T10:14:40.428Z,25.93
2023-04-03T10:17:22.398Z,25.92
2023-04-03T10:20:11.892Z,25.77
2023-04-03T10:23:29.774Z,25.63
2023-04-03T10:25:58.754Z,25.42
2023-04-03T10:28:36.390Z,25.24
2023-04-03T10:31:09.336Z,25.47
2023-04-03T10:33:53.425Z,25.48
2023-04-03T10:36:22.505Z,25.32
2023-04-03T10:39:07.357Z,25.63
2023-04-03T10:42:15.207Z,25.57
2023-04-03T10:44:48.909Z,25.28
2023-04-03T10:47:23.762Z,25.11
2023-04-03T10:50:14.635Z,25.68
2023-04-03T10:52:58.621Z,25.78
2023-04-03T10:55:36.778Z,25.19
2023-04-03T10:58:09.201Z,25.02
2023-04-03T11:00:54.739Z,25.49
2023-04-03T11:03:52.552Z,25.26
2023-04-03T11:06:26.989Z,25.35
2023-04-03T11:09:08.688Z,25.69
2023-04-03T11:11:40.900Z,25.65
2023-04-03T11:14:18.226Z,25.45
2023-04-03T11:17:11.152Z,25.47
2023-04-03T11:20:10.928Z,25.44
2023-04-03T11:22:47.201Z,25.49
2023-04-03T11:25:27.880Z,25.44
2023-04-03T11:28:00.002Z,25.23
2023-04-03T11:30:58.264Z,25.10
2023-04-03T11:33:30.972Z,25.22
2023-04-03T11:36:34.748Z,25.43
2023-04-03T11:39:27.952Z,25.26
2023-04-03T11:42:06.817Z,25.24
2023-04-03T11:44:41.058Z,25.41
2023-04-03T11:47:13.775Z,25.44
2023-04-03T11:50:05.072Z,25.59
2023-04-03T11:52:44.932Z,25.56
2023-04-03T11:55:26.045Z,25.55
2023-04-03T11:58:01.133Z,25.47
2023-04-03T12:00:52.791Z,25.39
2023-04-03T12:03:28.489Z,25.40
2023-04-03T12:06:11.732Z,25.41
2023-04-03T12:08:49.433Z,25.46
2023-04-03T12:11:33.568Z,25.33
2023-04-03T12:14:02.520Z,25.20
2023-04-03T12:16:40.333Z,25.15
2023-04-03T12:19:18.636Z,25.19
2023-04-03T12:21:53.880Z,25.22
2023-04-03T12:24:38.261Z,25.17
2023-04-03T12:27:39.015Z,25.09
2023-04-03T12:30:17.177Z,25.08
2023-04-03T12:33:12.519Z,25.00
2023-04-03T12:35:57.132Z,24.93
2023-04-03T12:38:35.245Z,24.92
2023-04-03T12:41:12.757Z,24.86
2023-04-03T12:44:06.453Z,24.82
2023-04-03T12:46:47.938Z,24.84
2023-04-03T12:49:32.126Z,24.82
2023-04-03T12:52:01.848Z,24.59
2023-04-03T12:54:33.515Z,24.49
2023-04-03T12:57:34.848Z,24.57
2023-04-03T13:00:23.044Z,24.52
2023-04-03T13:02:52.433Z,24.44
2023-04-03T13:05:23.720Z,24.32
2023-04-03T13:08:05.108Z,24.20
2023-04-03T13:10:45.413Z,24.18
2023-04-03T13:13:17.786Z,24.30
2023-04-03T13:15:51.033Z,24.20
2023-04-03T13:18:37.451Z,24.17
2023-04-03T13:21:10.660Z,24.08
2023-04-03T13:23:45.679Z,24.07
2023-04-03T13:26:18.187Z,23.96
2023-04-03T13:28:49.755Z,23.92
2023-04-03T13:31:29.861Z,23.89
2023-04-03T13:34:07.908Z,23.91
2023-04-03T13:36:43.150Z,23.87
2023-04-03T13:39:18.281Z,23.87
2023-04-03T13:41:54.191Z,23.86
2023-04-03T13:44:26.274Z,23.81
2023-04-03T13:47:16.776Z,23.76
2023-04-03T13:50:00.361Z,23.79
2023-04-03T13:52:39.836Z,23.74
2023-04-03T13:55:26.024Z,23.65
2023-04-03T13:58:23.820Z,23.62
2023-04-03T14:01:01.530Z,23.61
2023-04-03T14:03:40.369Z,23.61
2023-04-03T14:06:13.132Z,23.53
2023-04-03T14:08:43.730Z,23.64
2023-04-03T14:11:34.741Z,23.52
2023-04-03T14:14:08.466Z,23.45
2023-04-03T14:16:42.891Z,23.47
2023-04-03T14:19:38.173Z,23.49
2023-04-03T14:22:32.168Z,23.50
2023-04-03T14:25:02.068Z,23.31
2023-04-03T14:27:37.494Z,23.27
2023-04-03T14:30:11.426Z,23.30
2023-04-03T14:32:40.532Z,23.23
2023-04-03T14:35:09.682Z,23.17
2023-04-03T14:37:38.776Z,23.15
2023-04-03T14:40:11.014Z,23.13
2023-04-03T14:42:40.220Z,23.09
2023-04-03T14:45:13.362Z,23.13
2023-04-03T14:47:49.595Z,23.14
2023-04-03T14:50:23.472Z,22.99
2023-04-03T14:52:55.855Z,23.02
2023-04-03T14:55:25.264Z,23.13
2023-04-03T14:57:55.093Z,22.95
2023-04-03T15:00:24.973Z,22.97
2023-04-03T15:02:54.299Z,22.90
2023-04-03T15:05:23.498Z,22.86
2023-04-03T15:07:54.476Z,22.83
2023-04-03T15:10:31.972Z,22.89
2023-04-03T15:13:01.196Z,22.81
2023-04-03T15:15:32.446Z,22.83
2023-04-03T15:18:02.040Z,22.78
2023-04-03T15:20:32.851Z,22.79
2023-04-03T15:23:06.873Z,22.80
2023-04-03T15:25:35.967Z,22.67
2023-04-03T15:28:04.832Z,22.68
2023-04-03T15:30:33.855Z,22.66
2023-04-03T15:33:02.621Z,22.64
2023-04-03T15:35:31.703Z,22.56
2023-04-03T15:38:00.470Z,22.53
2023-04-03T15:40:29.960Z,22.54
2023-04-03T15:42:58.669Z,22.55
2023-04-03T15:45:30.670Z,22.53
2023-04-03T15:48:00.314Z,22.52
2023-04-03T15:50:29.483Z,22.40
2023-04-03T15:52:59.990Z,22.44
2023-04-03T15:55:32.387Z,22.45
2023-04-03T15:58:01.826Z,22.42
2023-04-03T16:00:31.476Z,22.39
2023-04-03T16:03:08.679Z,22.41
2023-04-03T16:05:40.594Z,22.46
2023-04-03T16:08:10.190Z,22.45
2023-04-03T16:10:40.128Z,22.37
2023-04-03T16:13:09.379Z,22.30
2023-04-03T16:15:39.159Z,22.24
2023-04-03T16:18:08.229Z,22.27
2023-04-03T16:20:37.967Z,22.29
2023-04-03T16:23:07.442Z,22.25
2023-04-03T16:25:40.013Z,22.24
2023-04-03T16:28:09.850Z,22.21
2023-04-03T16:30:38.648Z,22.20
2023-04-03T16:33:07.847Z,22.17
2023-04-03T16:35:37.188Z,22.09
2023-04-03T16:38:07.346Z,22.18
2023-04-03T16:40:36.743Z,22.05
2023-04-03T16:43:05.782Z,22.04
2023-04-03T16:45:34.684Z,22.10
2023-04-03T16:48:03.658Z,22.01
2023-04-03T16:50:32.482Z,22.01
2023-04-03T16:53:01.645Z,21.99
2023-04-03T16:55:30.420Z,21.99
2023-04-03T16:57:59.395Z,21.93
2023-04-03T17:00:28.106Z,21.92
2023-04-03T17:02:57.046Z,21.89
2023-04-03T17:05:26.221Z,21.84
2023-04-03T17:07:55.178Z,21.79
2023-04-03T17:10:23.846Z,21.74
2023-04-03T17:12:52.901Z,21.74
2023-04-03T17:15:22.075Z,21.67
2023-04-03T17:17:53.630Z,21.66
2023-04-03T17:20:22.663Z,21.62
2023-04-03T17:22:51.649Z,21.61
2023-04-03T17:25:20.876Z,21.64
2023-04-03T17:27:49.703Z,21.66
2023-04-03T17:30:18.881Z,21.61
2023-04-03T17:32:47.811Z,21.65
2023-04-03T17:35:16.997Z,21.65
2023-04-03T17:37:45.705Z,21.69
2023-04-03T17:40:15.964Z,21.68
2023-04-03T17:42:44.942Z,21.72
2023-04-03T17:45:13.750Z,21.74
2023-04-03T17:47:42.811Z,21.77
2023-04-03T17:50:12.343Z,21.74
2023-04-03T17:52:41.312Z,21.78
2023-04-03T17:55:10.269Z,21.78
2023-04-03T17:57:39.226Z,21.73
2023-04-03T18:00:10.308Z,21.77
2023-04-03T18:02:43.237Z,21.74
2023-04-03T18:05:12.422Z,21.79
2023-04-03T18:07:42.651Z,21.80
2023-04-03T18:10:12.164Z,21.79
2023-04-03T18:12:43.394Z,21.84
2023-04-03T18:15:13.265Z,21.81
2023-04-03T18:17:42.361Z,21.68
2023-04-03T18:20:12.775Z,21.79
2023-04-03T18:22:42.409Z,21.78
2023-04-03T18:25:12.559Z,21.74
2023-04-03T18:27:42.234Z,21.76
2023-04-03T18:30:14.422Z,22.00
2023-04-03T18:32:43.898Z,22.15
2023-04-03T18:35:12.859Z,22.02
2023-04-03T18:37:41.834Z,22.03
2023-04-03T18:40:11.298Z,21.93
2023-04-03T18:42:42.237Z,22.04
2023-04-03T18:45:13.134Z,22.04
2023-04-03T18:47:42.263Z,21.92
2023-04-03T18:50:11.424Z,21.94
2023-04-03T18:52:40.633Z,21.92
2023-04-03T18:55:12.068Z,21.87
2023-04-03T18:57:40.981Z,21.83
2023-04-03T19:00:10.291Z,21.86
2023-04-03T19:02:39.773Z,21.84
2023-04-03T19:05:12.326Z,21.83
2023-04-03T19:07:45.645Z,21.78
2023-04-03T19:10:18.291Z,21.72
2023-04-03T19:12:52.947Z,21.80
2023-04-03T19:15:25.238Z,21.63
2023-04-03T19:17:54.583Z,21.58
2023-04-03T19:20:23.416Z,21.44
2023-04-03T19:22:52.355Z,21.45
2023-04-03T19:25:21.426Z,21.55
2023-04-03T19:27:51.133Z,21.53
2023-04-03T19:30:19.989Z,21.48
2023-04-03T19:32:48.873Z,21.37
2023-04-03T19:35:17.599Z,21.43
2023-04-03T19:37:50.065Z,21.42
2023-04-03T19:40:19.259Z,21.59
2023-04-03T19:42:48.245Z,21.35
2023-04-03T19:45:19.035Z,21.26
2023-04-03T19:47:48.388Z,21.22
2023-04-03T19:50:17.330Z,21.09
2023-04-03T19:52:46.610Z,21.07
2023-04-03T19:55:15.813Z,21.08
2023-04-03T19:57:44.771Z,20.97
2023-04-03T20:00:14.875Z,20.89
2023-04-03T20:02:44.323Z,20.71
2023-04-03T20:05:13.627Z,21.03
2023-04-03T20:07:43.565Z,20.69
2023-04-03T20:10:14.100Z,20.68
2023-04-03T20:12:44.344Z,20.67
2023-04-03T20:15:15.046Z,20.84
2023-04-03T20:17:45.449Z,20.51
2023-04-03T20:20:16.103Z,20.49
2023-04-03T20:22:46.424Z,20.68
2023-04-03T20:25:23.657Z,20.76
2023-04-03T20:28:06.923Z,20.75
2023-04-03T20:30:36.752Z,20.77
2023-04-03T20:33:08.362Z,20.92
2023-04-03T20:35:38.147Z,20.80
2023-04-03T20:38:08.752Z,20.91
2023-04-03T20:40:39.483Z,20.93
2023-04-03T20:43:09.928Z,20.77
2023-04-03T20:45:40.602Z,20.69
2023-04-03T20:48:10.733Z,20.65
2023-04-03T20:50:40.915Z,20.37
2023-04-03T20:53:11.363Z,20.30
2023-04-03T20:55:41.422Z,20.15
2023-04-03T20:58:11.715Z,20.07
2023-04-03T21:00:43.098Z,20.19
2023-04-03T21:03:15.016Z,20.09
2023-04-03T21:05:45.558Z,19.94
2023-04-03T21:08:52.345Z,20.13
2023-04-03T21:11:59.273Z,19.84
2023-04-03T21:15:06.338Z,19.92
2023-04-03T21:17:36.073Z,19.87
2023-04-03T21:20:06.032Z,19.79
2023-04-03T21:22:36.677Z,19.59
2023-04-03T21:25:07.249Z,19.74
2023-04-03T21:27:37.839Z,19.59
2023-04-03T21:30:08.802Z,19.57
2023-04-03T21:32:39.072Z,19.52
2023-04-03T21:35:10.506Z,19.55
2023-04-03T21:37:40.098Z,19.50
2023-04-03T21:40:09.374Z,19.51
2023-04-03T21:42:38.542Z,19.46
2023-04-03T21:45:07.598Z,19.46
2023-04-03T21:47:37.522Z,19.49
2023-04-03T21:50:06.768Z,19.37
2023-04-03T21:52:35.552Z,19.22
2023-04-03T21:55:04.669Z,19.40
2023-04-03T21:57:33.384Z,19.10
2023-04-03T22:00:02.856Z,19.26
2023-04-03T22:02:34.684Z,19.42
2023-04-03T22:05:04.570Z,19.64
2023-04-03T22:07:33.299Z,19.37
2023-04-03T22:10:02.491Z,19.41
2023-04-03T22:12:31.554Z,19.50
2023-04-03T22:15:02.832Z,19.38
2023-04-03T22:17:32.147Z,19.36
2023-04-03T22:20:00.800Z,19.39
2023-04-03T22:22:29.822Z,19.57
2023-04-03T22:24:58.594Z,19.45
2023-04-03T22:27:27.499Z,19.53
2023-04-03T22:29:56.371Z,19.40
2023-04-03T22:32:25.593Z,19.47
2023-04-03T22:34:54.661Z,19.23
2023-04-03T22:37:23.782Z,19.44
2023-04-03T22:39:52.841Z,19.39
2023-04-03T22:42:22.276Z,19.34
2023-04-03T22:44:51.273Z,19.46
2023-04-03T22:47:20.156Z,19.36
2023-04-03T22:49:48.806Z,19.27
2023-04-03T22:52:20.188Z,19.20
2023-04-03T22:54:49.173Z,19.17
2023-04-03T22:57:17.840Z,19.11
2023-04-03T22:59:46.790Z,19.33
2023-04-03T23:02:15.803Z,19.39
2023-04-03T23:04:44.926Z,19.19
2023-04-03T23:07:14.292Z,19.16
2023-04-03T23:09:43.428Z,19.14
2023-04-03T23:12:12.189Z,19.19
2023-04-03T23:14:41.381Z,19.24
2023-04-03T23:17:10.983Z,19.17
2023-04-03T23:19:40.104Z,19.20
2023-04-03T23:22:09.063Z,19.08
2023-04-03T23:24:38.470Z,19.24
2023-04-03T23:27:07.516Z,19.21
2023-04-03T23:29:36.544Z,19.31
2023-04-03T23:32:05.308Z,19.28
2023-04-03T23:34:34.373Z,19.15
2023-04-03T23:37:03.204Z,19.22
2023-04-03T23:39:32.090Z,19.42
2023-04-03T23:42:00.961Z,19.35
2023-04-03T23:44:30.057Z,19.41
2023-04-03T23:46:59.952Z,19.40
2023-04-03T23:49:29.883Z,19.22
2023-04-03T23:51:58.719Z,19.25
2023-04-03T23:54:27.615Z,19.30
2023-04-03T23:56:56.518Z,19.30
2023-04-03T23:59:25.524Z,19.25
